createdAt,value
2018-07-15T00:00:30.385Z,16.50
2018-07-15T00:01:03.528Z,16.40
2018-07-15T00:01:36.542Z,16.50
2018-07-15T00:02:09.582Z,16.40
2018-07-15T00:02:42.608Z,16.40
2018-07-15T00:03:15.632Z,16.50
2018-07-15T00:03:48.679Z,16.40
2018-07-15T00:04:21.788Z,16.40
2018-07-15T00:04:54.814Z,16.40
2018-07-15T00:05:27.805Z,16.30
2018-07-15T00:06:00.896Z,16.30
2018-07-15T00:06:33.930Z,16.40
2018-07-15T00:07:06.970Z,16.30
2018-07-15T00:07:40.020Z,16.30
2018-07-15T00:08:13.075Z,16.30
2018-07-15T00:08:46.103Z,16.30
2018-07-15T00:22:24.197Z,16.30
2018-07-15T00:22:57.242Z,16.10
2018-07-15T00:23:30.266Z,16.10
2018-07-15T00:24:03.320Z,16.10
2018-07-15T00:24:36.338Z,16.10
2018-07-15T00:25:09.390Z,16.10
2018-07-15T00:25:42.434Z,16.00
2018-07-15T00:26:15.465Z,16.00
2018-07-15T00:26:48.450Z,16.00
2018-07-15T00:27:21.478Z,16.00
2018-07-15T00:27:54.466Z,16.00
2018-07-15T00:28:27.498Z,16.00
2018-07-15T00:29:00.540Z,16.00
2018-07-15T00:29:33.566Z,15.90
2018-07-15T00:30:06.942Z,16.00
2018-07-15T00:30:39.955Z,15.90
2018-07-15T00:31:13.066Z,15.90
2018-07-15T00:31:46.307Z,15.90
2018-07-15T00:32:19.406Z,15.90
2018-07-15T00:32:52.444Z,15.90
2018-07-15T00:33:25.498Z,15.90
2018-07-15T00:33:58.526Z,15.80
2018-07-15T00:34:31.540Z,15.90
2018-07-15T00:35:04.586Z,15.90
2018-07-15T00:35:37.621Z,15.90
2018-07-15T00:36:10.694Z,15.80
2018-07-15T00:36:43.718Z,15.80
2018-07-15T00:37:16.724Z,15.90
2018-07-15T00:37:49.748Z,15.90
2018-07-15T00:38:22.799Z,15.90
2018-07-15T00:38:55.846Z,15.90
2018-07-15T00:39:28.868Z,15.90
2018-07-15T00:40:01.899Z,15.90
2018-07-15T00:40:34.936Z,15.90
2018-07-15T00:41:08.266Z,16.00
2018-07-15T00:41:41.308Z,15.90
2018-07-15T00:42:14.360Z,16.00
2018-07-15T00:42:47.414Z,15.90
2018-07-15T00:43:20.586Z,15.90
2018-07-15T00:43:53.632Z,15.90
2018-07-15T00:44:26.690Z,15.90
2018-07-15T00:44:59.704Z,16.00
2018-07-15T00:45:32.739Z,15.90
2018-07-15T00:46:05.860Z,15.90
2018-07-15T00:46:38.900Z,15.90
2018-07-15T00:47:11.929Z,15.90
2018-07-15T00:47:44.963Z,15.90
2018-07-15T00:48:17.972Z,15.90
2018-07-15T00:48:51.034Z,15.90
2018-07-15T00:49:24.062Z,15.90
2018-07-15T00:49:57.258Z,15.90
2018-07-15T00:50:30.390Z,15.80
2018-07-15T00:51:03.493Z,16.00
2018-07-15T00:51:36.630Z,15.80
2018-07-15T00:52:09.755Z,15.90
2018-07-15T00:52:42.794Z,15.90
2018-07-15T00:53:15.834Z,15.90
2018-07-15T00:53:48.908Z,15.80
2018-07-15T00:54:21.932Z,15.80
2018-07-15T00:54:54.942Z,15.80
2018-07-15T00:55:28.001Z,15.90
2018-07-15T00:56:01.038Z,15.80
2018-07-15T00:56:34.074Z,15.80
2018-07-15T00:57:07.140Z,15.80
2018-07-15T00:57:40.210Z,15.80
2018-07-15T00:58:13.246Z,15.70
2018-07-15T00:58:46.366Z,15.80
2018-07-15T00:59:19.406Z,15.90
2018-07-15T00:59:52.406Z,15.80
2018-07-15T01:00:31.205Z,15.80
2018-07-15T01:01:04.280Z,15.80
2018-07-15T01:01:37.831Z,15.80
2018-07-15T01:02:10.912Z,15.80
2018-07-15T01:02:43.942Z,15.70
2018-07-15T01:03:17.006Z,15.70
2018-07-15T01:03:50.051Z,15.80
2018-07-15T01:04:23.086Z,15.70
2018-07-15T01:04:56.146Z,15.80
2018-07-15T01:05:29.208Z,15.70
2018-07-15T01:06:02.512Z,15.70
2018-07-15T01:06:35.546Z,15.70
2018-07-15T01:07:08.590Z,15.70
2018-07-15T01:07:41.674Z,15.70
2018-07-15T01:08:14.686Z,15.70
2018-07-15T01:08:47.764Z,15.70
2018-07-15T01:09:20.764Z,15.70
2018-07-15T01:09:53.870Z,15.70
2018-07-15T01:10:26.880Z,15.80
2018-07-15T01:10:59.874Z,15.80
2018-07-15T01:11:32.869Z,15.70
2018-07-15T01:12:05.896Z,15.70
2018-07-15T01:12:38.977Z,15.60
2018-07-15T01:13:12.018Z,15.60
2018-07-15T01:13:45.041Z,15.70
2018-07-15T01:14:18.074Z,15.70
2018-07-15T01:14:51.130Z,15.60
2018-07-15T01:15:24.159Z,15.60
2018-07-15T01:15:57.208Z,15.70
2018-07-15T01:16:30.232Z,15.70
2018-07-15T01:17:03.260Z,15.70
2018-07-15T01:17:36.272Z,15.60
2018-07-15T01:18:09.312Z,15.60
2018-07-15T01:18:42.374Z,15.60
2018-07-15T01:19:15.442Z,15.60
2018-07-15T01:19:48.456Z,15.60
2018-07-15T01:20:21.646Z,15.60
2018-07-15T01:20:54.715Z,15.60
2018-07-15T01:21:27.728Z,15.60
2018-07-15T01:22:00.755Z,15.60
2018-07-15T01:22:33.826Z,15.60
2018-07-15T01:23:06.846Z,15.50
2018-07-15T01:23:39.876Z,15.60
2018-07-15T01:24:12.914Z,15.60
2018-07-15T01:24:45.968Z,15.60
2018-07-15T01:25:19.472Z,15.50
2018-07-15T01:25:52.541Z,15.60
2018-07-15T01:26:25.493Z,15.60
2018-07-15T01:26:58.518Z,15.50
2018-07-15T01:27:31.601Z,15.50
2018-07-15T01:28:04.895Z,15.60
2018-07-15T01:28:37.914Z,15.50
2018-07-15T01:29:10.960Z,15.50
2018-07-15T01:29:44.015Z,15.50
2018-07-15T01:30:17.052Z,15.40
2018-07-15T01:30:50.134Z,15.50
2018-07-15T01:31:23.167Z,15.40
2018-07-15T01:31:56.159Z,15.50
2018-07-15T01:32:29.182Z,15.50
2018-07-15T01:33:02.286Z,15.50
2018-07-15T01:33:35.314Z,15.40
2018-07-15T01:34:08.348Z,15.40
2018-07-15T01:34:41.373Z,15.40
2018-07-15T01:35:14.403Z,15.50
2018-07-15T01:35:47.420Z,15.40
2018-07-15T01:36:20.452Z,15.40
2018-07-15T01:36:53.481Z,15.40
2018-07-15T01:37:26.539Z,15.40
2018-07-15T01:37:59.542Z,15.40
2018-07-15T01:38:32.554Z,15.40
2018-07-15T01:39:05.839Z,15.40
2018-07-15T01:39:38.848Z,15.40
2018-07-15T01:40:11.897Z,15.40
2018-07-15T01:40:44.981Z,15.40
2018-07-15T01:41:17.989Z,15.40
2018-07-15T01:41:51.005Z,15.40
2018-07-15T01:42:24.045Z,15.40
2018-07-15T01:42:57.103Z,15.40
2018-07-15T01:43:30.115Z,15.40
2018-07-15T01:44:03.127Z,15.40
2018-07-15T01:44:36.144Z,15.40
2018-07-15T01:45:09.249Z,15.40
2018-07-15T01:45:42.282Z,15.40
2018-07-15T01:46:16.013Z,15.40
2018-07-15T01:46:49.056Z,15.40
2018-07-15T01:47:24.149Z,15.30
2018-07-15T01:47:57.169Z,15.30
2018-07-15T01:48:30.218Z,15.40
2018-07-15T01:49:03.289Z,15.40
2018-07-15T01:49:36.466Z,15.40
2018-07-15T01:50:09.506Z,15.40
2018-07-15T01:50:42.553Z,15.30
2018-07-15T01:51:15.576Z,15.30
2018-07-15T01:51:48.598Z,15.30
2018-07-15T01:52:21.620Z,15.30
2018-07-15T01:52:54.641Z,15.30
2018-07-15T01:53:27.690Z,15.30
2018-07-15T01:54:00.722Z,15.30
2018-07-15T01:54:33.748Z,15.20
2018-07-15T01:55:07.316Z,15.20
2018-07-15T01:55:40.367Z,15.30
2018-07-15T01:56:13.405Z,15.20
2018-07-15T01:56:46.436Z,15.20
2018-07-15T01:57:19.474Z,15.20
2018-07-15T01:57:52.498Z,15.20
2018-07-15T01:58:25.547Z,15.20
2018-07-15T01:58:58.544Z,15.20
2018-07-15T01:59:31.615Z,15.30
2018-07-15T02:00:05.408Z,15.20
2018-07-15T02:00:38.471Z,15.20
2018-07-15T02:01:11.531Z,15.20
2018-07-15T02:01:44.573Z,15.20
2018-07-15T02:02:17.574Z,15.20
2018-07-15T02:02:50.557Z,15.20
2018-07-15T02:03:23.569Z,15.20
2018-07-15T02:03:56.595Z,15.20
2018-07-15T02:04:29.598Z,15.20
2018-07-15T02:05:02.876Z,15.20
2018-07-15T02:05:35.889Z,15.20
2018-07-15T02:06:08.931Z,15.10
2018-07-15T02:06:42.739Z,15.10
2018-07-15T02:07:15.768Z,15.20
2018-07-15T02:07:48.796Z,15.20
2018-07-15T02:08:21.828Z,15.10
2018-07-15T02:08:54.826Z,15.10
2018-07-15T02:09:27.839Z,15.10
2018-07-15T02:10:00.894Z,15.10
2018-07-15T02:10:33.923Z,15.10
2018-07-15T02:11:07.078Z,15.10
2018-07-15T02:11:40.096Z,15.10
2018-07-15T02:12:13.107Z,15.10
2018-07-15T02:12:46.118Z,15.00
2018-07-15T02:13:19.185Z,15.00
2018-07-15T02:13:52.186Z,15.10
2018-07-15T02:14:25.234Z,15.00
2018-07-15T02:14:58.258Z,15.00
2018-07-15T02:15:31.276Z,15.00
2018-07-15T02:16:04.332Z,15.00
2018-07-15T02:16:37.350Z,15.00
2018-07-15T02:17:10.428Z,15.00
2018-07-15T02:17:43.474Z,15.10
2018-07-15T02:18:16.535Z,15.00
2018-07-15T02:18:49.602Z,15.00
2018-07-15T02:19:22.655Z,15.00
2018-07-15T02:19:55.687Z,15.00
2018-07-15T02:20:28.718Z,15.00
2018-07-15T02:21:01.742Z,15.00
2018-07-15T02:21:34.787Z,15.00
2018-07-15T02:22:07.787Z,14.90
2018-07-15T02:22:40.789Z,15.00
2018-07-15T02:23:13.782Z,15.00
2018-07-15T02:23:46.857Z,15.00
2018-07-15T02:24:19.893Z,15.00
2018-07-15T02:24:52.912Z,14.90
2018-07-15T02:25:25.964Z,14.90
2018-07-15T02:25:58.974Z,15.00
2018-07-15T02:26:31.959Z,15.00
2018-07-15T02:27:05.060Z,14.90
2018-07-15T02:27:38.078Z,14.80
2018-07-15T02:28:11.087Z,14.90
2018-07-15T02:28:44.098Z,14.90
2018-07-15T02:29:17.134Z,14.90
2018-07-15T02:29:50.162Z,14.80
2018-07-15T02:30:23.165Z,14.90
2018-07-15T02:30:56.196Z,14.90
2018-07-15T02:31:29.215Z,14.80
2018-07-15T02:32:02.263Z,14.90
2018-07-15T02:32:35.275Z,14.90
2018-07-15T02:33:08.282Z,14.80
2018-07-15T02:33:41.327Z,14.80
2018-07-15T02:34:14.379Z,14.80
2018-07-15T02:34:47.443Z,14.90
2018-07-15T02:35:21.349Z,14.80
2018-07-15T02:35:54.387Z,14.70
2018-07-15T02:36:27.506Z,14.90
2018-07-15T02:37:00.535Z,14.80
2018-07-15T02:37:33.566Z,14.80
2018-07-15T02:38:06.628Z,14.80
2018-07-15T02:38:39.591Z,14.80
2018-07-15T02:39:12.565Z,14.80
2018-07-15T02:39:45.598Z,14.80
2018-07-15T02:40:18.638Z,14.80
2018-07-15T02:40:51.632Z,14.80
2018-07-15T02:41:24.628Z,14.80
2018-07-15T02:41:57.696Z,14.80
2018-07-15T02:42:30.736Z,14.80
2018-07-15T02:43:03.932Z,14.70
2018-07-15T02:43:36.987Z,14.80
2018-07-15T02:44:10.005Z,14.80
2018-07-15T02:44:43.060Z,14.90
2018-07-15T02:45:16.094Z,14.70
2018-07-15T02:45:49.131Z,14.70
2018-07-15T02:46:22.148Z,14.70
2018-07-15T02:46:55.280Z,14.70
2018-07-15T02:47:28.383Z,14.70
2018-07-15T02:48:01.450Z,14.70
2018-07-15T02:48:34.466Z,14.70
2018-07-15T02:49:07.508Z,14.70
2018-07-15T02:49:40.600Z,14.70
2018-07-15T02:50:13.630Z,14.70
2018-07-15T02:50:46.691Z,14.70
2018-07-15T02:51:19.724Z,14.70
2018-07-15T02:51:52.932Z,14.70
2018-07-15T02:52:25.952Z,14.60
2018-07-15T02:52:59.014Z,14.70
2018-07-15T02:53:32.032Z,14.60
2018-07-15T02:54:05.482Z,14.70
2018-07-15T02:54:38.536Z,14.70
2018-07-15T02:55:11.566Z,14.70
2018-07-15T02:55:44.578Z,14.60
2018-07-15T02:56:17.612Z,14.70
2018-07-15T02:56:50.650Z,14.70
2018-07-15T02:57:23.674Z,14.60
2018-07-15T02:57:56.715Z,14.70
2018-07-15T02:58:29.730Z,14.70
2018-07-15T02:59:02.798Z,14.70
2018-07-15T02:59:35.816Z,14.70
2018-07-15T03:00:08.906Z,14.70
2018-07-15T03:00:41.900Z,14.70
2018-07-15T03:01:14.938Z,14.70
2018-07-15T03:01:47.995Z,14.70
2018-07-15T03:02:21.078Z,14.60
2018-07-15T03:02:54.070Z,14.70
2018-07-15T03:03:27.072Z,14.60
2018-07-15T03:04:00.023Z,14.60
2018-07-15T03:04:33.040Z,14.70
2018-07-15T03:05:06.064Z,14.60
2018-07-15T03:05:39.112Z,14.60
2018-07-15T03:06:12.127Z,14.50
2018-07-15T03:06:45.242Z,14.50
2018-07-15T03:07:18.252Z,14.60
2018-07-15T03:07:51.292Z,14.60
2018-07-15T03:08:24.322Z,14.60
2018-07-15T03:08:58.080Z,14.60
2018-07-15T03:09:31.996Z,14.70
2018-07-15T03:10:05.052Z,14.70
2018-07-15T03:10:38.074Z,14.60
2018-07-15T03:11:11.129Z,14.60
2018-07-15T03:11:44.153Z,14.60
2018-07-15T03:12:17.199Z,14.60
2018-07-15T03:12:50.504Z,14.60
2018-07-15T03:13:26.716Z,14.60
2018-07-15T03:13:59.736Z,14.70
2018-07-15T03:14:32.761Z,14.50
2018-07-15T03:15:05.855Z,14.60
2018-07-15T03:15:38.850Z,14.60
2018-07-15T03:16:11.887Z,14.60
2018-07-15T03:16:44.898Z,14.60
2018-07-15T03:17:17.949Z,14.60
2018-07-15T03:17:50.993Z,14.60
2018-07-15T03:18:24.117Z,14.50
2018-07-15T03:18:57.090Z,14.60
2018-07-15T03:19:30.165Z,14.50
2018-07-15T03:20:03.281Z,14.50
2018-07-15T03:20:36.395Z,14.50
2018-07-15T03:21:09.499Z,14.60
2018-07-15T03:21:42.582Z,14.60
2018-07-15T03:22:15.670Z,14.50
2018-07-15T03:22:48.748Z,14.50
2018-07-15T03:23:21.842Z,14.60
2018-07-15T03:23:54.885Z,14.50
2018-07-15T03:24:27.930Z,14.60
2018-07-15T03:25:00.968Z,14.50
2018-07-15T03:25:34.021Z,14.50
2018-07-15T03:26:07.036Z,14.50
2018-07-15T03:26:40.101Z,14.50
2018-07-15T03:27:13.170Z,14.50
2018-07-15T03:27:46.184Z,14.50
2018-07-15T03:28:27.042Z,14.60
2018-07-15T03:29:00.049Z,14.50
2018-07-15T03:29:33.061Z,14.50
2018-07-15T03:30:06.301Z,14.40
2018-07-15T03:30:39.326Z,14.60
2018-07-15T03:31:12.312Z,14.50
2018-07-15T03:31:45.376Z,14.50
2018-07-15T03:32:18.678Z,14.50
2018-07-15T03:32:51.694Z,14.50
2018-07-15T03:33:24.670Z,14.50
2018-07-15T03:33:57.684Z,14.60
2018-07-15T03:34:30.663Z,14.50
2018-07-15T03:35:03.748Z,14.50
2018-07-15T03:35:36.812Z,14.50
2018-07-15T03:36:09.874Z,14.50
2018-07-15T03:36:42.877Z,14.50
2018-07-15T03:37:15.892Z,14.50
2018-07-15T03:37:48.919Z,14.50
2018-07-15T03:38:21.958Z,14.50
2018-07-15T03:38:54.958Z,14.60
2018-07-15T03:39:27.984Z,14.50
2018-07-15T03:40:01.019Z,14.50
2018-07-15T03:40:34.043Z,14.60
2018-07-15T03:41:07.090Z,14.50
2018-07-15T03:41:40.074Z,14.50
2018-07-15T03:42:13.096Z,14.50
2018-07-15T03:42:46.139Z,14.50
2018-07-15T03:43:19.144Z,14.50
2018-07-15T03:43:52.190Z,14.60
2018-07-15T03:44:25.210Z,14.50
2018-07-15T03:44:58.341Z,14.60
2018-07-15T03:45:31.355Z,14.60
2018-07-15T03:46:04.438Z,14.50
2018-07-15T03:46:37.784Z,14.50
2018-07-15T03:47:10.787Z,14.60
2018-07-15T03:47:43.830Z,14.50
2018-07-15T03:48:16.834Z,14.50
2018-07-15T03:48:49.801Z,14.60
2018-07-15T03:49:22.834Z,14.60
2018-07-15T03:49:55.874Z,14.60
2018-07-15T03:50:28.896Z,14.50
2018-07-15T03:51:01.987Z,14.60
2018-07-15T03:51:35.039Z,14.60
2018-07-15T03:52:08.081Z,14.60
2018-07-15T03:52:41.141Z,14.60
2018-07-15T03:53:14.150Z,14.60
2018-07-15T03:53:47.258Z,14.70
2018-07-15T03:54:20.278Z,14.60
2018-07-15T03:54:53.326Z,14.60
2018-07-15T03:55:26.421Z,14.50
2018-07-15T03:55:59.482Z,14.60
2018-07-15T03:56:32.524Z,14.70
2018-07-15T03:57:05.847Z,14.70
2018-07-15T03:57:38.955Z,14.60
2018-07-15T03:58:11.940Z,14.60
2018-07-15T03:58:44.948Z,14.60
2018-07-15T03:59:17.930Z,14.60
2018-07-15T03:59:50.924Z,14.70
2018-07-15T04:01:53.494Z,14.60
2018-07-15T04:02:26.491Z,14.60
2018-07-15T04:02:59.522Z,14.70
2018-07-15T04:03:32.561Z,14.60
2018-07-15T04:04:05.593Z,14.80
2018-07-15T04:04:38.642Z,14.70
2018-07-15T04:05:11.681Z,14.70
2018-07-15T04:05:44.696Z,14.80
2018-07-15T04:06:17.734Z,14.70
2018-07-15T04:06:50.756Z,14.80
2018-07-15T04:07:23.786Z,14.70
2018-07-15T04:07:56.814Z,14.60
2018-07-15T04:08:29.847Z,14.70
2018-07-15T04:09:03.789Z,14.80
2018-07-15T04:09:36.802Z,14.70
2018-07-15T04:10:09.898Z,14.70
2018-07-15T04:10:42.942Z,14.80
2018-07-15T04:11:15.954Z,14.80
2018-07-15T04:11:49.322Z,14.80
2018-07-15T04:12:22.346Z,14.90
2018-07-15T04:12:55.560Z,14.90
2018-07-15T04:13:28.582Z,14.90
2018-07-15T04:14:01.654Z,14.80
2018-07-15T04:14:34.692Z,14.90
2018-07-15T04:15:07.872Z,14.80
2018-07-15T04:15:40.884Z,14.90
2018-07-15T04:16:13.904Z,14.90
2018-07-15T04:16:46.920Z,14.90
2018-07-15T04:17:19.968Z,14.90
2018-07-15T04:17:57.952Z,15.00
2018-07-15T04:18:30.956Z,15.00
2018-07-15T04:19:04.144Z,15.00
2018-07-15T04:19:37.711Z,14.90
2018-07-15T04:20:10.720Z,15.00
2018-07-15T04:20:43.868Z,15.00
2018-07-15T04:21:17.124Z,15.00
2018-07-15T04:21:50.255Z,15.10
2018-07-15T04:22:23.286Z,15.10
2018-07-15T04:22:56.982Z,15.00
2018-07-15T04:23:30.033Z,15.00
2018-07-15T04:24:03.049Z,15.10
2018-07-15T04:24:36.058Z,15.10
2018-07-15T04:25:09.042Z,15.10
2018-07-15T04:25:42.090Z,15.10
2018-07-15T04:26:15.139Z,15.20
2018-07-15T04:26:48.158Z,15.20
2018-07-15T04:27:21.184Z,15.20
2018-07-15T04:27:54.262Z,15.30
2018-07-15T04:28:27.302Z,15.20
2018-07-15T04:29:01.030Z,15.20
2018-07-15T04:29:34.056Z,15.30
2018-07-15T04:30:07.096Z,15.30
2018-07-15T04:30:40.097Z,15.40
2018-07-15T04:31:13.094Z,15.30
2018-07-15T04:31:46.094Z,15.30
2018-07-15T04:32:19.144Z,15.40
2018-07-15T04:32:52.228Z,15.40
2018-07-15T04:33:25.278Z,15.40
2018-07-15T04:33:58.313Z,15.50
2018-07-15T04:34:31.339Z,15.40
2018-07-15T04:35:04.442Z,15.50
2018-07-15T04:35:37.454Z,15.60
2018-07-15T04:36:10.470Z,15.50
2018-07-15T04:36:43.470Z,15.50
2018-07-15T04:37:16.492Z,15.50
2018-07-15T04:37:49.628Z,15.60
2018-07-15T04:38:22.570Z,15.60
2018-07-15T04:38:55.602Z,15.60
2018-07-15T04:39:28.609Z,15.60
2018-07-15T04:40:01.684Z,15.70
2018-07-15T04:40:34.730Z,15.70
2018-07-15T04:41:07.744Z,15.70
2018-07-15T04:41:40.770Z,15.70
2018-07-15T04:42:13.800Z,15.80
2018-07-15T04:42:47.102Z,15.80
2018-07-15T04:43:20.122Z,15.80
2018-07-15T04:43:53.251Z,15.80
2018-07-15T04:44:26.232Z,15.80
2018-07-15T04:44:59.244Z,15.90
2018-07-15T04:45:32.290Z,16.00
2018-07-15T04:46:05.354Z,15.90
2018-07-15T04:46:38.448Z,15.90
2018-07-15T04:47:11.480Z,15.90
2018-07-15T04:47:44.599Z,15.90
2018-07-15T04:48:17.634Z,16.00
2018-07-15T04:48:50.686Z,16.00
2018-07-15T04:49:23.701Z,16.00
2018-07-15T04:49:56.686Z,16.10
2018-07-15T04:50:29.698Z,16.10
2018-07-15T04:51:02.792Z,16.10
2018-07-15T04:51:35.812Z,16.10
2018-07-15T04:52:08.825Z,16.10
2018-07-15T04:52:41.822Z,16.20
2018-07-15T04:53:14.840Z,16.20
2018-07-15T04:53:47.916Z,16.30
2018-07-15T04:54:20.927Z,16.40
2018-07-15T04:54:53.984Z,16.30
2018-07-15T04:55:27.024Z,16.40
2018-07-15T04:56:00.036Z,16.40
2018-07-15T04:56:33.096Z,16.40
2018-07-15T04:57:06.124Z,16.40
2018-07-15T04:57:39.162Z,16.40
2018-07-15T04:58:12.157Z,16.50
2018-07-15T04:58:45.233Z,16.60
2018-07-15T04:59:18.267Z,16.50
2018-07-15T04:59:51.288Z,16.60
2018-07-15T05:00:24.312Z,16.70
2018-07-15T05:00:57.320Z,16.70
2018-07-15T05:01:30.380Z,16.70
2018-07-15T05:02:03.453Z,16.70
2018-07-15T05:02:36.483Z,16.90
2018-07-15T05:03:09.548Z,16.80
2018-07-15T05:03:42.549Z,16.90
2018-07-15T05:04:15.580Z,16.90
2018-07-15T05:04:48.604Z,16.90
2018-07-15T05:05:21.636Z,17.00
2018-07-15T05:05:54.638Z,17.00
2018-07-15T05:06:27.644Z,17.10
2018-07-15T05:07:00.644Z,17.10
2018-07-15T05:07:33.678Z,17.20
2018-07-15T05:08:06.738Z,17.10
2018-07-15T05:08:39.734Z,17.20
2018-07-15T05:09:12.752Z,17.30
2018-07-15T05:09:45.772Z,17.30
2018-07-15T05:10:18.809Z,17.30
2018-07-15T05:10:51.820Z,17.40
2018-07-15T05:11:24.980Z,17.40
2018-07-15T05:11:57.917Z,17.40
2018-07-15T05:12:30.948Z,17.50
2018-07-15T05:13:04.065Z,17.50
2018-07-15T05:13:37.078Z,17.50
2018-07-15T05:14:10.102Z,17.60
2018-07-15T05:14:43.157Z,17.70
2018-07-15T05:15:16.175Z,17.70
2018-07-15T05:15:49.180Z,17.70
2018-07-15T05:16:22.176Z,17.70
2018-07-15T05:16:55.176Z,17.90
2018-07-15T05:17:28.255Z,17.90
2018-07-15T05:18:01.270Z,17.80
2018-07-15T05:18:34.397Z,17.90
2018-07-15T05:19:07.328Z,17.80
2018-07-15T05:19:40.364Z,18.00
2018-07-15T05:20:13.402Z,18.00
2018-07-15T05:20:46.420Z,18.00
2018-07-15T05:21:19.442Z,18.10
2018-07-15T05:21:52.734Z,18.10
2018-07-15T05:22:25.784Z,18.10
2018-07-15T05:22:58.782Z,18.10
2018-07-15T05:23:31.868Z,18.20
2018-07-15T05:24:04.914Z,18.20
2018-07-15T05:24:37.946Z,18.30
2018-07-15T05:25:10.959Z,18.30
2018-07-15T05:25:43.994Z,18.30
2018-07-15T05:26:16.963Z,18.40
2018-07-15T05:26:50.000Z,18.40
2018-07-15T05:27:23.010Z,18.40
2018-07-15T05:27:56.065Z,18.60
2018-07-15T05:28:29.062Z,18.60
2018-07-15T05:29:02.082Z,18.60
2018-07-15T05:29:35.112Z,18.60
2018-07-15T05:30:08.139Z,18.70
2018-07-15T05:30:41.244Z,18.70
2018-07-15T05:31:14.211Z,18.80
2018-07-15T05:31:47.206Z,18.70
2018-07-15T05:32:20.223Z,18.80
2018-07-15T05:32:53.283Z,18.90
2018-07-15T05:33:26.298Z,18.90
2018-07-15T05:33:59.294Z,18.90
2018-07-15T05:34:32.286Z,19.00
2018-07-15T05:35:05.321Z,18.90
2018-07-15T05:35:38.266Z,19.00
2018-07-15T05:36:11.320Z,19.00
2018-07-15T05:36:44.412Z,19.00
2018-07-15T05:37:17.443Z,19.00
2018-07-15T05:37:50.494Z,19.00
2018-07-15T05:38:23.484Z,19.20
2018-07-15T05:38:56.521Z,19.20
2018-07-15T05:39:29.497Z,19.30
2018-07-15T05:40:02.609Z,19.30
2018-07-15T05:40:35.598Z,19.30
2018-07-15T05:41:08.652Z,19.40
2018-07-15T05:41:41.703Z,19.40
2018-07-15T05:42:14.784Z,19.40
2018-07-15T05:42:47.778Z,19.50
2018-07-15T05:43:20.818Z,19.60
2018-07-15T05:43:53.832Z,19.60
2018-07-15T05:44:26.849Z,19.60
2018-07-15T05:44:59.994Z,19.70
2018-07-15T05:45:33.010Z,19.70
2018-07-15T05:46:06.062Z,19.80
2018-07-15T05:46:39.094Z,19.80
2018-07-15T05:47:12.090Z,19.70
2018-07-15T05:47:45.142Z,19.70
2018-07-15T05:48:18.151Z,19.80
2018-07-15T05:48:51.174Z,19.80
2018-07-15T05:49:24.244Z,19.90
2018-07-15T05:49:57.286Z,20.00
2018-07-15T05:50:30.356Z,20.00
2018-07-15T05:51:03.480Z,19.90
2018-07-15T05:51:36.522Z,20.10
2018-07-15T05:52:09.592Z,20.00
2018-07-15T05:52:42.637Z,20.10
2018-07-15T05:53:15.692Z,20.10
2018-07-15T05:53:48.738Z,20.10
2018-07-15T05:54:21.780Z,20.20
2018-07-15T05:54:54.790Z,20.30
2018-07-15T05:55:27.836Z,20.30
2018-07-15T05:56:00.852Z,20.30
2018-07-15T05:56:34.090Z,20.30
2018-07-15T05:57:07.124Z,20.30
2018-07-15T05:57:40.146Z,20.30
2018-07-15T05:58:13.181Z,20.30
2018-07-15T05:58:46.224Z,20.30
2018-07-15T05:59:19.271Z,20.30
2018-07-15T05:59:52.302Z,20.40
2018-07-15T06:00:25.382Z,20.40
2018-07-15T06:00:58.424Z,20.50
2018-07-15T06:01:31.502Z,20.50
2018-07-15T06:02:04.685Z,20.60
2018-07-15T06:02:37.726Z,20.60
2018-07-15T06:03:10.760Z,20.60
2018-07-15T06:03:43.782Z,20.60
2018-07-15T06:04:16.836Z,20.60
2018-07-15T06:04:49.836Z,20.70
2018-07-15T06:05:22.874Z,20.70
2018-07-15T06:05:55.938Z,20.60
2018-07-15T06:06:28.998Z,20.80
2018-07-15T06:07:02.027Z,20.70
2018-07-15T06:07:35.081Z,20.70
2018-07-15T06:08:08.104Z,20.60
2018-07-15T06:08:41.128Z,20.70
2018-07-15T06:09:14.157Z,20.60
2018-07-15T06:09:47.185Z,20.60
2018-07-15T06:10:20.228Z,20.70
2018-07-15T06:10:53.270Z,20.70
2018-07-15T06:11:26.296Z,20.80
2018-07-15T06:11:59.380Z,20.80
2018-07-15T06:12:32.408Z,20.90
2018-07-15T06:13:05.494Z,20.90
2018-07-15T06:13:38.680Z,20.90
2018-07-15T06:14:11.688Z,20.80
2018-07-15T06:14:44.676Z,20.80
2018-07-15T06:15:17.694Z,20.90
2018-07-15T06:15:50.690Z,21.00
2018-07-15T06:16:23.773Z,21.00
2018-07-15T06:26:46.868Z,21.10
2018-07-15T06:27:19.928Z,22.00
2018-07-15T06:27:52.946Z,21.90
2018-07-15T06:28:25.960Z,21.80
2018-07-15T06:28:58.968Z,21.80
2018-07-15T06:29:31.986Z,21.90
2018-07-15T06:30:05.024Z,22.00
2018-07-15T06:30:38.054Z,22.20
2018-07-15T06:31:11.016Z,22.20
2018-07-15T06:31:44.021Z,22.20
2018-07-15T06:32:17.008Z,22.30
2018-07-15T06:32:50.066Z,22.30
2018-07-15T06:33:23.184Z,22.40
2018-07-15T06:33:56.221Z,22.40
2018-07-15T06:34:29.232Z,22.50
2018-07-15T06:35:02.288Z,22.50
2018-07-15T06:35:35.318Z,22.60
2018-07-15T06:36:08.316Z,22.80
2018-07-15T06:36:41.334Z,23.00
2018-07-15T06:37:14.338Z,23.20
2018-07-15T06:37:47.376Z,23.40
2018-07-15T06:38:20.382Z,23.60
2018-07-15T06:38:53.403Z,23.70
2018-07-15T06:39:26.399Z,23.80
2018-07-15T06:39:59.428Z,24.20
2018-07-15T06:40:32.958Z,24.60
2018-07-15T06:41:06.032Z,25.40
2018-07-15T06:41:39.044Z,26.00
2018-07-15T06:42:12.056Z,26.80
2018-07-15T06:42:45.064Z,27.10
2018-07-15T06:43:18.042Z,27.60
2018-07-15T06:43:51.171Z,27.30
2018-07-15T06:44:24.181Z,27.30
2018-07-15T06:44:57.183Z,26.90
2018-07-15T06:45:30.232Z,26.30
2018-07-15T06:46:03.262Z,26.00
2018-07-15T06:46:36.284Z,25.90
2018-07-15T06:47:09.298Z,26.10
2018-07-15T06:47:42.678Z,26.50
2018-07-15T06:48:15.760Z,27.20
2018-07-15T06:48:48.832Z,28.30
2018-07-15T06:49:21.903Z,29.20
2018-07-15T06:49:55.008Z,29.70
2018-07-15T06:50:28.082Z,30.30
2018-07-15T06:51:01.120Z,31.20
2018-07-15T06:51:34.134Z,31.50
2018-07-15T06:52:07.222Z,32.20
2018-07-15T06:52:40.217Z,32.00
2018-07-15T06:53:13.242Z,32.40
2018-07-15T06:53:46.330Z,32.80
2018-07-15T06:54:19.380Z,33.20
2018-07-15T06:54:52.426Z,33.50
2018-07-15T06:55:25.458Z,34.00
2018-07-15T06:55:58.540Z,34.20
2018-07-15T06:56:31.556Z,34.50
2018-07-15T06:57:04.584Z,34.80
2018-07-15T06:57:37.602Z,35.20
2018-07-15T06:58:10.618Z,35.40
2018-07-15T06:58:43.784Z,35.20
2018-07-15T06:59:16.798Z,35.30
2018-07-15T06:59:49.835Z,35.20
2018-07-15T07:00:22.874Z,35.50
2018-07-15T07:00:55.861Z,35.40
2018-07-15T07:01:29.757Z,35.40
2018-07-15T07:02:02.792Z,35.70
2018-07-15T07:02:35.822Z,35.90
2018-07-15T07:03:08.920Z,36.30
2018-07-15T07:03:41.952Z,36.40
2018-07-15T07:04:14.975Z,36.40
2018-07-15T07:04:47.970Z,36.60
2018-07-15T07:05:20.992Z,37.00
2018-07-15T07:05:54.052Z,37.10
2018-07-15T07:06:27.117Z,37.30
2018-07-15T07:07:00.298Z,37.40
2018-07-15T07:07:34.945Z,37.50
2018-07-15T07:08:13.031Z,37.30
2018-07-15T07:08:46.050Z,37.20
2018-07-15T07:09:19.065Z,36.90
2018-07-15T07:09:52.102Z,37.00
2018-07-15T07:10:25.127Z,36.80
2018-07-15T07:10:58.194Z,37.40
2018-07-15T07:13:00.800Z,37.40
2018-07-15T07:13:33.962Z,37.30
2018-07-15T07:14:07.113Z,37.00
2018-07-15T07:14:40.058Z,36.70
2018-07-15T07:15:13.102Z,36.90
2018-07-15T07:15:46.178Z,36.90
2018-07-15T07:16:19.186Z,36.90
2018-07-15T07:16:52.206Z,36.50
2018-07-15T07:17:25.226Z,36.40
2018-07-15T07:17:58.260Z,36.80
2018-07-15T07:18:31.274Z,36.80
2018-07-15T07:19:04.371Z,36.80
2018-07-15T07:19:37.383Z,36.70
2018-07-15T07:20:10.412Z,36.70
2018-07-15T07:20:43.450Z,36.80
2018-07-15T07:21:17.028Z,36.70
2018-07-15T07:21:50.038Z,36.50
2018-07-15T07:22:23.050Z,36.40
2018-07-15T07:22:56.074Z,36.90
2018-07-15T07:23:29.096Z,37.00
2018-07-15T07:24:02.115Z,37.10
2018-07-15T07:24:35.192Z,37.30
2018-07-15T07:25:08.244Z,37.60
2018-07-15T07:25:41.309Z,37.50
2018-07-15T07:26:14.320Z,37.50
2018-07-15T07:26:47.350Z,37.00
2018-07-15T07:27:20.402Z,36.70
2018-07-15T07:27:53.754Z,36.70
2018-07-15T07:28:26.820Z,36.60
2018-07-15T07:28:59.838Z,36.40
2018-07-15T07:29:32.873Z,36.20
2018-07-15T07:30:05.939Z,36.00
2018-07-15T07:30:38.944Z,36.10
2018-07-15T07:31:11.952Z,35.90
2018-07-15T07:31:45.014Z,35.90
2018-07-15T07:32:18.141Z,36.30